Aeroporto :
LOGIN :

Iscrizione | Disclaimer

   EN    FR    IT 

 










Sommario :    VFR   VFR Marginale   IFR   IFR Intensivo   IFR Molto Intensivo
Visibilità : 
Base nubi : 
>= 8 km
>= 3000ft
5 / 8 km
1000 / 3000 ft
1500m / 5 km
500 / 1000 ft
800 / 1500m
200 / 500 ft
< 800m
< 200 ft
Simboli :   Temporali  Nebbia  Neve Forte  Precipitazioni Forti  Vento > 20 kt
SIGMETs :   Varie  Temporali  Ghiacco  Turbolenza  Onda orograficha  Ceneri Vulcaniche







- Altitudine del aeroporto : 13 ft
- Codice IATA : CEQ
- Carte del aeroporto


LFMD - Cannes Mandelieu

ULTIMO METAR :
  • 250700Z AUTO VRB02KT 9999 SCT019 BKN025 BKN030 18/14 Q1014

METARs OBSOLETI :
  • 250630Z AUTO VRB02KT 9999 OVC030 18/14 Q1014
  • 250600Z AUTO 00000KT 9999 BKN030 17/15 Q1014
  • 250530Z AUTO VRB01KT 9999 OVC029 16/14 Q1014 TEMPO 4000 BR OVC010
  • 250500Z AUTO VRB02KT 9999 OVC029 16/15 Q1014 TEMPO 4000 BR OVC010
  • 250430Z AUTO VRB02KT 9999 OVC029 16/14 Q1014 TEMPO 4000 BR OVC010
  • 250400Z AUTO VRB02KT 9999 FEW012 OVC030 16/14 Q1013 TEMPO 4000 BR OVC010

TAF TAF LFMD
Valido dal 25 a 03 ore il 26 a 03 ore UTC


250200Z 2503/2603 VRB05KT 9999 OVC025
PROB40
TEMPO 2503/2507 4000 BR OVC010
BECMG 2508/2509 14010KT
BECMG 2511/2513 CAVOK
BECMG 2518/2520 VRB03KT
ATIS : +33 4 93 48 73 23
Nessun NOTAM noto per questo aeroporto.



MetMap, La meteo Aeronautica in un colpo d'occhio ! - Copyright ORBIFLY Dicembre 2007 - Disclaimer

ORBIFLY MET'MAP TEAM :

Programmazione e sviluppo : Alexandra Zaïnal
Concezione e sviluppo : Baudouin d'Aumeries
Co-Programmazione e sviluppo : Marc-Olivier Méhu
Supporto tecnico e logistico : Manuel Goepfert
Aiuto per la traduzione : Arnaldo La Scala

Contatto : metmap@orbifly.com




FONTI E CREDITI :

   NOAA